sensor_id;sensor_type;location;lat;lon;timestamp;P1;durP1;ratioP1;P2;durP2;ratioP2
39356;SDS011;25077;50.302;18.996;2022-07-21T00:00:00;13.90;;;7.30;;
39356;SDS011;25077;50.302;18.996;2022-07-21T00:03:05;11.70;;;6.70;;
39356;SDS011;25077;50.302;18.996;2022-07-21T00:06:07;11.97;;;5.93;;
39356;SDS011;25077;50.302;18.996;2022-07-21T00:09:11;14.60;;;7.20;;
39356;SDS011;25077;50.302;18.996;2022-07-21T00:12:14;10.83;;;6.27;;
39356;SDS011;25077;50.302;18.996;2022-07-21T00:15:16;10.10;;;6.40;;
39356;SDS011;25077;50.302;18.996;2022-07-21T00:18:20;12.70;;;6.53;;
39356;SDS011;25077;50.302;18.996;2022-07-21T00:21:22;11.43;;;5.80;;
39356;SDS011;25077;50.302;18.996;2022-07-21T00:24:25;11.33;;;5.90;;
39356;SDS011;25077;50.302;18.996;2022-07-21T00:27:27;12.30;;;6.57;;
39356;SDS011;25077;50.302;18.996;2022-07-21T00:30:29;12.00;;;6.43;;
39356;SDS011;25077;50.302;18.996;2022-07-21T00:33:31;9.40;;;5.63;;
39356;SDS011;25077;50.302;18.996;2022-07-21T00:36:33;9.80;;;5.77;;
39356;SDS011;25077;50.302;18.996;2022-07-21T00:39:36;10.40;;;5.53;;
39356;SDS011;25077;50.302;18.996;2022-07-21T00:42:39;13.23;;;5.83;;
39356;SDS011;25077;50.302;18.996;2022-07-21T00:45:41;10.80;;;5.43;;
39356;SDS011;25077;50.302;18.996;2022-07-21T00:48:43;10.77;;;5.73;;
39356;SDS011;25077;50.302;18.996;2022-07-21T00:51:45;11.70;;;5.40;;
39356;SDS011;25077;50.302;18.996;2022-07-21T00:54:49;11.03;;;5.63;;
39356;SDS011;25077;50.302;18.996;2022-07-21T00:57:51;9.27;;;5.53;;
39356;SDS011;25077;50.302;18.996;2022-07-21T01:00:54;11.17;;;5.27;;
39356;SDS011;25077;50.302;18.996;2022-07-21T01:03:56;8.17;;;5.30;;
39356;SDS011;25077;50.302;18.996;2022-07-21T01:06:59;13.37;;;5.83;;
39356;SDS011;25077;50.302;18.996;2022-07-21T01:10:04;9.93;;;5.77;;
39356;SDS011;25077;50.302;18.996;2022-07-21T01:13:06;8.67;;;5.10;;
39356;SDS011;25077;50.302;18.996;2022-07-21T01:16:08;8.47;;;5.33;;
39356;SDS011;25077;50.302;18.996;2022-07-21T01:19:10;12.30;;;4.90;;
39356;SDS011;25077;50.302;18.996;2022-07-21T01:22:14;12.07;;;5.30;;
39356;SDS011;25077;50.302;18.996;2022-07-21T01:25:16;8.60;;;5.23;;
39356;SDS011;25077;50.302;18.996;2022-07-21T01:28:19;9.97;;;5.63;;
39356;SDS011;25077;50.302;18.996;2022-07-21T01:31:21;6.63;;;5.07;;
39356;SDS011;25077;50.302;18.996;2022-07-21T01:34:23;13.67;;;5.13;;
39356;SDS011;25077;50.302;18.996;2022-07-21T01:37:28;10.67;;;5.53;;
39356;SDS011;25077;50.302;18.996;2022-07-21T01:40:32;13.10;;;6.07;;
39356;SDS011;25077;50.302;18.996;2022-07-21T01:43:51;7.87;;;5.30;;
39356;SDS011;25077;50.302;18.996;2022-07-21T01:46:53;8.17;;;5.57;;
39356;SDS011;25077;50.302;18.996;2022-07-21T01:49:55;9.63;;;5.40;;
39356;SDS011;25077;50.302;18.996;2022-07-21T01:52:58;7.80;;;4.80;;
39356;SDS011;25077;50.302;18.996;2022-07-21T01:56:00;11.80;;;5.50;;
39356;SDS011;25077;50.302;18.996;2022-07-21T01:59:03;10.70;;;4.87;;
39356;SDS011;25077;50.302;18.996;2022-07-21T02:02:05;9.83;;;4.57;;
39356;SDS011;25077;50.302;18.996;2022-07-21T02:05:08;8.67;;;4.83;;
39356;SDS011;25077;50.302;18.996;2022-07-21T02:08:11;8.57;;;4.70;;
39356;SDS011;25077;50.302;18.996;2022-07-21T02:11:14;6.27;;;4.73;;
39356;SDS011;25077;50.302;18.996;2022-07-21T02:14:17;9.87;;;4.90;;
39356;SDS011;25077;50.302;18.996;2022-07-21T02:17:19;6.70;;;4.63;;
39356;SDS011;25077;50.302;18.996;2022-07-21T02:20:21;9.00;;;4.70;;
39356;SDS011;25077;50.302;18.996;2022-07-21T02:23:24;12.63;;;5.27;;
39356;SDS011;25077;50.302;18.996;2022-07-21T02:26:26;8.27;;;4.70;;
39356;SDS011;25077;50.302;18.996;2022-07-21T02:29:28;10.97;;;4.77;;
39356;SDS011;25077;50.302;18.996;2022-07-21T02:32:30;8.63;;;4.87;;
39356;SDS011;25077;50.302;18.996;2022-07-21T02:35:32;10.47;;;4.63;;
39356;SDS011;25077;50.302;18.996;2022-07-21T02:38:36;9.43;;;5.07;;
39356;SDS011;25077;50.302;18.996;2022-07-21T02:41:38;9.47;;;5.20;;
39356;SDS011;25077;50.302;18.996;2022-07-21T02:44:40;9.40;;;5.03;;
39356;SDS011;25077;50.302;18.996;2022-07-21T02:47:49;18.60;;;5.40;;
39356;SDS011;25077;50.302;18.996;2022-07-21T02:50:55;11.47;;;5.37;;
39356;SDS011;25077;50.302;18.996;2022-07-21T02:53:58;15.80;;;5.77;;
39356;SDS011;25077;50.302;18.996;2022-07-21T02:57:00;13.13;;;6.00;;
39356;SDS011;25077;50.302;18.996;2022-07-21T03:00:03;10.70;;;5.37;;
39356;SDS011;25077;50.302;18.996;2022-07-21T03:03:06;10.17;;;6.30;;
39356;SDS011;25077;50.302;18.996;2022-07-21T03:06:08;10.83;;;6.00;;
39356;SDS011;25077;50.302;18.996;2022-07-21T03:09:12;10.43;;;6.50;;
39356;SDS011;25077;50.302;18.996;2022-07-21T03:12:13;12.00;;;5.80;;
39356;SDS011;25077;50.302;18.996;2022-07-21T03:15:16;12.03;;;5.73;;
39356;SDS011;25077;50.302;18.996;2022-07-21T03:18:18;9.83;;;5.47;;
39356;SDS011;25077;50.302;18.996;2022-07-21T03:21:20;9.00;;;5.80;;
39356;SDS011;25077;50.302;18.996;2022-07-21T03:24:23;11.13;;;5.37;;
39356;SDS011;25077;50.302;18.996;2022-07-21T03:27:25;9.33;;;4.97;;
39356;SDS011;25077;50.302;18.996;2022-07-21T03:30:27;7.70;;;4.80;;
39356;SDS011;25077;50.302;18.996;2022-07-21T03:33:29;8.93;;;4.67;;
39356;SDS011;25077;50.302;18.996;2022-07-21T03:36:31;7.93;;;4.50;;
39356;SDS011;25077;50.302;18.996;2022-07-21T03:39:35;10.37;;;4.73;;
39356;SDS011;25077;50.302;18.996;2022-07-21T03:42:36;7.40;;;4.73;;
39356;SDS011;25077;50.302;18.996;2022-07-21T03:45:38;7.80;;;4.77;;
39356;SDS011;25077;50.302;18.996;2022-07-21T03:48:40;10.30;;;4.90;;
39356;SDS011;25077;50.302;18.996;2022-07-21T03:51:42;9.17;;;5.30;;
39356;SDS011;25077;50.302;18.996;2022-07-21T03:54:46;9.37;;;5.17;;
39356;SDS011;25077;50.302;18.996;2022-07-21T03:57:48;6.50;;;4.90;;
39356;SDS011;25077;50.302;18.996;2022-07-21T04:00:52;8.33;;;4.80;;
39356;SDS011;25077;50.302;18.996;2022-07-21T04:03:54;6.00;;;4.87;;
39356;SDS011;25077;50.302;18.996;2022-07-21T04:06:56;8.97;;;5.63;;
39356;SDS011;25077;50.302;18.996;2022-07-21T04:09:59;11.47;;;6.03;;
39356;SDS011;25077;50.302;18.996;2022-07-21T04:13:01;10.63;;;6.30;;
39356;SDS011;25077;50.302;18.996;2022-07-21T04:16:06;12.43;;;7.23;;
39356;SDS011;25077;50.302;18.996;2022-07-21T04:19:08;12.47;;;7.10;;
39356;SDS011;25077;50.302;18.996;2022-07-21T04:22:10;16.07;;;6.83;;
39356;SDS011;25077;50.302;18.996;2022-07-21T04:25:14;17.77;;;6.73;;
39356;SDS011;25077;50.302;18.996;2022-07-21T04:28:16;14.03;;;6.07;;
39356;SDS011;25077;50.302;18.996;2022-07-21T04:31:18;13.63;;;5.60;;
39356;SDS011;25077;50.302;18.996;2022-07-21T04:34:20;10.50;;;4.83;;
39356;SDS011;25077;50.302;18.996;2022-07-21T04:37:22;10.27;;;5.20;;
39356;SDS011;25077;50.302;18.996;2022-07-21T04:40:25;13.70;;;5.93;;
39356;SDS011;25077;50.302;18.996;2022-07-21T04:43:27;13.37;;;5.73;;
39356;SDS011;25077;50.302;18.996;2022-07-21T04:46:29;10.73;;;5.20;;
39356;SDS011;25077;50.302;18.996;2022-07-21T04:49:31;8.43;;;4.87;;
39356;SDS011;25077;50.302;18.996;2022-07-21T04:52:33;10.60;;;4.90;;
39356;SDS011;25077;50.302;18.996;2022-07-21T04:55:36;12.73;;;5.20;;
39356;SDS011;25077;50.302;18.996;2022-07-21T04:58:38;10.83;;;5.13;;
39356;SDS011;25077;50.302;18.996;2022-07-21T05:01:40;9.93;;;5.87;;
39356;SDS011;25077;50.302;18.996;2022-07-21T05:04:42;13.77;;;5.90;;
39356;SDS011;25077;50.302;18.996;2022-07-21T05:07:44;9.77;;;5.23;;
39356;SDS011;25077;50.302;18.996;2022-07-21T05:10:47;17.60;;;6.27;;
39356;SDS011;25077;50.302;18.996;2022-07-21T05:13:49;14.07;;;5.77;;
39356;SDS011;25077;50.302;18.996;2022-07-21T05:16:51;19.70;;;5.73;;
39356;SDS011;25077;50.302;18.996;2022-07-21T05:19:53;12.57;;;5.60;;
39356;SDS011;25077;50.302;18.996;2022-07-21T05:22:55;18.30;;;5.23;;
39356;SDS011;25077;50.302;18.996;2022-07-21T05:25:58;11.53;;;4.87;;
39356;SDS011;25077;50.302;18.996;2022-07-21T05:29:00;9.17;;;4.60;;
39356;SDS011;25077;50.302;18.996;2022-07-21T05:32:03;15.77;;;5.23;;
39356;SDS011;25077;50.302;18.996;2022-07-21T05:35:06;11.70;;;5.30;;
39356;SDS011;25077;50.302;18.996;2022-07-21T05:38:11;10.60;;;5.00;;
39356;SDS011;25077;50.302;18.996;2022-07-21T05:41:15;15.20;;;5.78;;
39356;SDS011;25077;50.302;18.996;2022-07-21T05:44:17;13.13;;;5.38;;
39356;SDS011;25077;50.302;18.996;2022-07-21T05:47:19;15.63;;;5.70;;
39356;SDS011;25077;50.302;18.996;2022-07-21T05:50:21;16.40;;;5.38;;
39356;SDS011;25077;50.302;18.996;2022-07-21T05:53:23;14.68;;;4.80;;
39356;SDS011;25077;50.302;18.996;2022-07-21T05:56:26;17.83;;;4.85;;
39356;SDS011;25077;50.302;18.996;2022-07-21T05:59:28;13.38;;;4.65;;
39356;SDS011;25077;50.302;18.996;2022-07-21T06:02:30;8.30;;;4.53;;
39356;SDS011;25077;50.302;18.996;2022-07-21T06:05:33;12.25;;;5.55;;
39356;SDS011;25077;50.302;18.996;2022-07-21T06:08:36;15.43;;;5.25;;
39356;SDS011;25077;50.302;18.996;2022-07-21T06:11:40;12.75;;;4.88;;
39356;SDS011;25077;50.302;18.996;2022-07-21T06:14:42;14.25;;;5.55;;
39356;SDS011;25077;50.302;18.996;2022-07-21T06:17:45;17.55;;;4.60;;
39356;SDS011;25077;50.302;18.996;2022-07-21T06:20:47;14.85;;;4.57;;
39356;SDS011;25077;50.302;18.996;2022-07-21T06:23:48;19.33;;;5.70;;
39356;SDS011;25077;50.302;18.996;2022-07-21T06:26:52;19.48;;;5.72;;
39356;SDS011;25077;50.302;18.996;2022-07-21T06:29:55;24.52;;;6.20;;
39356;SDS011;25077;50.302;18.996;2022-07-21T06:32:59;17.65;;;5.70;;
39356;SDS011;25077;50.302;18.996;2022-07-21T06:36:01;22.58;;;6.07;;
39356;SDS011;25077;50.302;18.996;2022-07-21T06:39:03;9.93;;;5.80;;
39356;SDS011;25077;50.302;18.996;2022-07-21T06:42:06;14.20;;;6.18;;
39356;SDS011;25077;50.302;18.996;2022-07-21T06:45:10;25.58;;;6.03;;
39356;SDS011;25077;50.302;18.996;2022-07-21T06:48:12;18.73;;;6.15;;
39356;SDS011;25077;50.302;18.996;2022-07-21T06:51:14;13.07;;;5.07;;
39356;SDS011;25077;50.302;18.996;2022-07-21T06:54:16;13.77;;;5.80;;
39356;SDS011;25077;50.302;18.996;2022-07-21T06:57:19;20.38;;;5.50;;
39356;SDS011;25077;50.302;18.996;2022-07-21T07:00:22;14.45;;;5.53;;
39356;SDS011;25077;50.302;18.996;2022-07-21T07:03:24;21.13;;;5.72;;
39356;SDS011;25077;50.302;18.996;2022-07-21T07:06:26;13.45;;;6.03;;
39356;SDS011;25077;50.302;18.996;2022-07-21T07:09:28;10.20;;;4.88;;
39356;SDS011;25077;50.302;18.996;2022-07-21T07:12:31;17.45;;;5.07;;
39356;SDS011;25077;50.302;18.996;2022-07-21T07:15:33;20.50;;;5.45;;
39356;SDS011;25077;50.302;18.996;2022-07-21T07:18:36;11.70;;;5.50;;
39356;SDS011;25077;50.302;18.996;2022-07-21T07:21:38;9.95;;;4.53;;
39356;SDS011;25077;50.302;18.996;2022-07-21T07:24:40;10.35;;;5.32;;
39356;SDS011;25077;50.302;18.996;2022-07-21T07:27:43;15.40;;;5.30;;
39356;SDS011;25077;50.302;18.996;2022-07-21T07:30:46;19.05;;;5.25;;
39356;SDS011;25077;50.302;18.996;2022-07-21T07:33:49;17.02;;;4.97;;
39356;SDS011;25077;50.302;18.996;2022-07-21T07:36:50;21.10;;;5.47;;
39356;SDS011;25077;50.302;18.996;2022-07-21T07:39:52;14.98;;;4.93;;
39356;SDS011;25077;50.302;18.996;2022-07-21T07:42:56;15.93;;;5.15;;
39356;SDS011;25077;50.302;18.996;2022-07-21T07:45:58;14.95;;;5.60;;
39356;SDS011;25077;50.302;18.996;2022-07-21T07:49:02;16.80;;;5.10;;
39356;SDS011;25077;50.302;18.996;2022-07-21T07:52:04;9.80;;;4.75;;
39356;SDS011;25077;50.302;18.996;2022-07-21T07:55:06;17.92;;;4.80;;
39356;SDS011;25077;50.302;18.996;2022-07-21T07:58:12;10.95;;;5.25;;
39356;SDS011;25077;50.302;18.996;2022-07-21T08:01:14;11.00;;;4.95;;
39356;SDS011;25077;50.302;18.996;2022-07-21T08:04:16;13.55;;;5.45;;
39356;SDS011;25077;50.302;18.996;2022-07-21T08:07:18;21.23;;;5.25;;
39356;SDS011;25077;50.302;18.996;2022-07-21T08:10:20;16.50;;;5.20;;
39356;SDS011;25077;50.302;18.996;2022-07-21T08:13:24;10.80;;;4.90;;
39356;SDS011;25077;50.302;18.996;2022-07-21T08:16:26;8.45;;;4.40;;
39356;SDS011;25077;50.302;18.996;2022-07-21T08:19:28;17.98;;;4.30;;
39356;SDS011;25077;50.302;18.996;2022-07-21T08:22:30;11.13;;;4.10;;
39356;SDS011;25077;50.302;18.996;2022-07-21T08:25:32;10.65;;;4.05;;
39356;SDS011;25077;50.302;18.996;2022-07-21T08:28:35;11.95;;;4.82;;
39356;SDS011;25077;50.302;18.996;2022-07-21T08:31:37;14.85;;;5.22;;
39356;SDS011;25077;50.302;18.996;2022-07-21T08:34:39;9.48;;;4.93;;
39356;SDS011;25077;50.302;18.996;2022-07-21T08:37:41;13.93;;;4.00;;
39356;SDS011;25077;50.302;18.996;2022-07-21T08:40:44;8.57;;;4.15;;
39356;SDS011;25077;50.302;18.996;2022-07-21T08:43:50;7.88;;;3.83;;
39356;SDS011;25077;50.302;18.996;2022-07-21T08:46:52;11.98;;;4.13;;
39356;SDS011;25077;50.302;18.996;2022-07-21T08:49:54;9.57;;;4.00;;
39356;SDS011;25077;50.302;18.996;2022-07-21T08:52:57;19.08;;;4.38;;
39356;SDS011;25077;50.302;18.996;2022-07-21T08:55:59;11.63;;;3.83;;
39356;SDS011;25077;50.302;18.996;2022-07-21T08:59:02;19.17;;;3.67;;
39356;SDS011;25077;50.302;18.996;2022-07-21T09:02:05;11.40;;;3.90;;
39356;SDS011;25077;50.302;18.996;2022-07-21T09:05:25;5.75;;;3.80;;
39356;SDS011;25077;50.302;18.996;2022-07-21T09:08:30;10.68;;;4.22;;
39356;SDS011;25077;50.302;18.996;2022-07-21T09:11:33;14.75;;;4.40;;
39356;SDS011;25077;50.302;18.996;2022-07-21T09:14:39;12.30;;;3.92;;
39356;SDS011;25077;50.302;18.996;2022-07-21T09:17:41;9.75;;;4.00;;
39356;SDS011;25077;50.302;18.996;2022-07-21T09:20:46;9.40;;;3.85;;
39356;SDS011;25077;50.302;18.996;2022-07-21T09:23:50;8.50;;;3.75;;
39356;SDS011;25077;50.302;18.996;2022-07-21T09:27:06;11.85;;;4.47;;
39356;SDS011;25077;50.302;18.996;2022-07-21T09:30:11;6.15;;;3.75;;
39356;SDS011;25077;50.302;18.996;2022-07-21T09:33:17;13.70;;;4.30;;
39356;SDS011;25077;50.302;18.996;2022-07-21T09:36:21;11.32;;;3.95;;
39356;SDS011;25077;50.302;18.996;2022-07-21T09:42:44;11.32;;;4.00;;
39356;SDS011;25077;50.302;18.996;2022-07-21T09:45:51;10.50;;;4.30;;
39356;SDS011;25077;50.302;18.996;2022-07-21T09:48:56;11.90;;;3.95;;
39356;SDS011;25077;50.302;18.996;2022-07-21T09:52:00;14.95;;;4.53;;
39356;SDS011;25077;50.302;18.996;2022-07-21T09:55:03;8.23;;;4.00;;
39356;SDS011;25077;50.302;18.996;2022-07-21T09:58:07;13.50;;;4.53;;
39356;SDS011;25077;50.302;18.996;2022-07-21T10:01:10;7.97;;;3.83;;
39356;SDS011;25077;50.302;18.996;2022-07-21T10:04:13;8.88;;;4.10;;
39356;SDS011;25077;50.302;18.996;2022-07-21T10:07:15;11.07;;;3.97;;
39356;SDS011;25077;50.302;18.996;2022-07-21T10:10:17;10.32;;;4.22;;
39356;SDS011;25077;50.302;18.996;2022-07-21T10:13:20;10.75;;;4.25;;
39356;SDS011;25077;50.302;18.996;2022-07-21T10:16:23;11.65;;;3.95;;
39356;SDS011;25077;50.302;18.996;2022-07-21T10:19:26;15.30;;;4.45;;
39356;SDS011;25077;50.302;18.996;2022-07-21T10:22:36;7.80;;;4.00;;
39356;SDS011;25077;50.302;18.996;2022-07-21T10:25:48;21.45;;;4.65;;
39356;SDS011;25077;50.302;18.996;2022-07-21T10:28:51;19.58;;;4.28;;
39356;SDS011;25077;50.302;18.996;2022-07-21T10:31:54;8.68;;;3.63;;
39356;SDS011;25077;50.302;18.996;2022-07-21T10:35:24;10.93;;;3.80;;
39356;SDS011;25077;50.302;18.996;2022-07-21T10:38:29;8.85;;;3.72;;
39356;SDS011;25077;50.302;18.996;2022-07-21T10:41:36;8.70;;;3.53;;
39356;SDS011;25077;50.302;18.996;2022-07-21T10:44:40;5.10;;;3.30;;
39356;SDS011;25077;50.302;18.996;2022-07-21T10:47:47;13.10;;;4.88;;
39356;SDS011;25077;50.302;18.996;2022-07-21T10:50:50;11.35;;;4.20;;
39356;SDS011;25077;50.302;18.996;2022-07-21T10:57:24;11.27;;;3.30;;
39356;SDS011;25077;50.302;18.996;2022-07-21T11:00:31;4.55;;;3.63;;
39356;SDS011;25077;50.302;18.996;2022-07-21T11:03:38;8.70;;;3.50;;
39356;SDS011;25077;50.302;18.996;2022-07-21T11:06:42;8.13;;;3.38;;
39356;SDS011;25077;50.302;18.996;2022-07-21T11:13:20;15.10;;;3.40;;
39356;SDS011;25077;50.302;18.996;2022-07-21T11:20:11;9.35;;;4.07;;
39356;SDS011;25077;50.302;18.996;2022-07-21T11:23:15;7.70;;;4.47;;
39356;SDS011;25077;50.302;18.996;2022-07-21T11:26:17;11.40;;;3.97;;
39356;SDS011;25077;50.302;18.996;2022-07-21T11:29:21;10.98;;;3.72;;
39356;SDS011;25077;50.302;18.996;2022-07-21T11:32:24;8.85;;;3.50;;
39356;SDS011;25077;50.302;18.996;2022-07-21T11:35:28;10.95;;;3.55;;
39356;SDS011;25077;50.302;18.996;2022-07-21T11:38:31;12.02;;;3.65;;
39356;SDS011;25077;50.302;18.996;2022-07-21T11:41:33;6.70;;;3.33;;
39356;SDS011;25077;50.302;18.996;2022-07-21T11:44:36;8.25;;;3.38;;
39356;SDS011;25077;50.302;18.996;2022-07-21T11:47:38;4.85;;;3.35;;
39356;SDS011;25077;50.302;18.996;2022-07-21T11:50:42;9.25;;;3.28;;
39356;SDS011;25077;50.302;18.996;2022-07-21T11:53:44;16.95;;;3.90;;
39356;SDS011;25077;50.302;18.996;2022-07-21T11:56:47;12.57;;;3.90;;
39356;SDS011;25077;50.302;18.996;2022-07-21T11:59:50;7.05;;;3.28;;
39356;SDS011;25077;50.302;18.996;2022-07-21T12:03:03;6.00;;;3.25;;
39356;SDS011;25077;50.302;18.996;2022-07-21T12:06:08;8.55;;;3.17;;
39356;SDS011;25077;50.302;18.996;2022-07-21T12:09:10;8.82;;;3.58;;
39356;SDS011;25077;50.302;18.996;2022-07-21T12:12:13;7.53;;;3.50;;
39356;SDS011;25077;50.302;18.996;2022-07-21T12:15:16;9.75;;;3.83;;
39356;SDS011;25077;50.302;18.996;2022-07-21T12:18:19;7.43;;;3.80;;
39356;SDS011;25077;50.302;18.996;2022-07-21T12:21:25;9.07;;;3.58;;
39356;SDS011;25077;50.302;18.996;2022-07-21T12:27:55;54.63;;;6.53;;
39356;SDS011;25077;50.302;18.996;2022-07-21T12:30:57;12.68;;;3.53;;
39356;SDS011;25077;50.302;18.996;2022-07-21T12:34:09;8.02;;;3.10;;
39356;SDS011;25077;50.302;18.996;2022-07-21T12:37:14;6.82;;;3.65;;
39356;SDS011;25077;50.302;18.996;2022-07-21T12:40:16;11.57;;;3.70;;
39356;SDS011;25077;50.302;18.996;2022-07-21T12:43:20;11.00;;;4.10;;
39356;SDS011;25077;50.302;18.996;2022-07-21T12:46:27;12.40;;;4.28;;
39356;SDS011;25077;50.302;18.996;2022-07-21T12:49:30;12.57;;;4.60;;
39356;SDS011;25077;50.302;18.996;2022-07-21T12:52:33;8.32;;;4.03;;
39356;SDS011;25077;50.302;18.996;2022-07-21T12:55:35;7.25;;;4.00;;
39356;SDS011;25077;50.302;18.996;2022-07-21T12:58:37;13.15;;;4.35;;
39356;SDS011;25077;50.302;18.996;2022-07-21T13:01:40;9.27;;;3.47;;
39356;SDS011;25077;50.302;18.996;2022-07-21T13:04:42;9.70;;;4.13;;
39356;SDS011;25077;50.302;18.996;2022-07-21T13:07:46;7.13;;;3.58;;
39356;SDS011;25077;50.302;18.996;2022-07-21T13:10:48;7.75;;;3.40;;
39356;SDS011;25077;50.302;18.996;2022-07-21T13:13:50;7.53;;;3.20;;
39356;SDS011;25077;50.302;18.996;2022-07-21T13:16:52;9.80;;;3.83;;
39356;SDS011;25077;50.302;18.996;2022-07-21T13:19:57;7.82;;;3.50;;
39356;SDS011;25077;50.302;18.996;2022-07-21T13:23:00;11.02;;;3.58;;
39356;SDS011;25077;50.302;18.996;2022-07-21T13:26:02;9.73;;;3.20;;
39356;SDS011;25077;50.302;18.996;2022-07-21T13:29:05;7.18;;;3.28;;
39356;SDS011;25077;50.302;18.996;2022-07-21T13:32:08;7.40;;;3.05;;
39356;SDS011;25077;50.302;18.996;2022-07-21T13:35:10;7.53;;;3.17;;
39356;SDS011;25077;50.302;18.996;2022-07-21T13:38:14;7.40;;;3.22;;
39356;SDS011;25077;50.302;18.996;2022-07-21T13:41:16;8.95;;;3.95;;
39356;SDS011;25077;50.302;18.996;2022-07-21T13:44:18;7.38;;;3.20;;
39356;SDS011;25077;50.302;18.996;2022-07-21T13:47:20;9.55;;;3.30;;
39356;SDS011;25077;50.302;18.996;2022-07-21T13:50:22;9.23;;;3.58;;
39356;SDS011;25077;50.302;18.996;2022-07-21T13:53:26;8.65;;;2.90;;
39356;SDS011;25077;50.302;18.996;2022-07-21T13:56:28;12.70;;;3.45;;
39356;SDS011;25077;50.302;18.996;2022-07-21T13:59:30;11.02;;;3.40;;
39356;SDS011;25077;50.302;18.996;2022-07-21T14:02:32;9.02;;;3.25;;
39356;SDS011;25077;50.302;18.996;2022-07-21T14:05:34;7.70;;;3.65;;
39356;SDS011;25077;50.302;18.996;2022-07-21T14:08:37;11.40;;;3.60;;
39356;SDS011;25077;50.302;18.996;2022-07-21T14:11:40;10.05;;;3.53;;
39356;SDS011;25077;50.302;18.996;2022-07-21T14:14:42;9.98;;;3.53;;
39356;SDS011;25077;50.302;18.996;2022-07-21T14:17:47;12.00;;;3.03;;
39356;SDS011;25077;50.302;18.996;2022-07-21T14:20:49;9.50;;;3.28;;
39356;SDS011;25077;50.302;18.996;2022-07-21T14:23:53;6.93;;;3.50;;
39356;SDS011;25077;50.302;18.996;2022-07-21T14:27:09;10.82;;;3.58;;
39356;SDS011;25077;50.302;18.996;2022-07-21T14:30:11;9.45;;;3.03;;
39356;SDS011;25077;50.302;18.996;2022-07-21T14:33:13;10.48;;;2.90;;
39356;SDS011;25077;50.302;18.996;2022-07-21T14:36:15;9.77;;;3.38;;
39356;SDS011;25077;50.302;18.996;2022-07-21T14:39:19;9.05;;;3.00;;
39356;SDS011;25077;50.302;18.996;2022-07-21T14:42:21;6.38;;;3.35;;
39356;SDS011;25077;50.302;18.996;2022-07-21T14:45:24;12.80;;;2.72;;
39356;SDS011;25077;50.302;18.996;2022-07-21T14:48:26;11.70;;;3.30;;
39356;SDS011;25077;50.302;18.996;2022-07-21T14:51:28;5.80;;;3.03;;
39356;SDS011;25077;50.302;18.996;2022-07-21T14:54:31;7.50;;;3.25;;
39356;SDS011;25077;50.302;18.996;2022-07-21T14:57:33;9.18;;;3.22;;
39356;SDS011;25077;50.302;18.996;2022-07-21T15:00:35;6.47;;;3.05;;
39356;SDS011;25077;50.302;18.996;2022-07-21T15:03:37;8.95;;;3.65;;
39356;SDS011;25077;50.302;18.996;2022-07-21T15:06:39;12.35;;;3.28;;
39356;SDS011;25077;50.302;18.996;2022-07-21T15:09:45;8.85;;;3.35;;
39356;SDS011;25077;50.302;18.996;2022-07-21T15:12:47;6.07;;;3.38;;
39356;SDS011;25077;50.302;18.996;2022-07-21T15:15:49;7.82;;;3.10;;
39356;SDS011;25077;50.302;18.996;2022-07-21T15:18:51;11.85;;;3.50;;
39356;SDS011;25077;50.302;18.996;2022-07-21T15:21:52;4.90;;;3.35;;
39356;SDS011;25077;50.302;18.996;2022-07-21T15:24:56;10.25;;;3.22;;
39356;SDS011;25077;50.302;18.996;2022-07-21T15:27:59;10.10;;;3.20;;
39356;SDS011;25077;50.302;18.996;2022-07-21T15:31:01;6.82;;;3.20;;
39356;SDS011;25077;50.302;18.996;2022-07-21T15:34:03;7.43;;;2.92;;
39356;SDS011;25077;50.302;18.996;2022-07-21T15:37:05;10.82;;;3.30;;
39356;SDS011;25077;50.302;18.996;2022-07-21T15:40:09;7.93;;;2.70;;
39356;SDS011;25077;50.302;18.996;2022-07-21T15:43:11;8.63;;;3.17;;
39356;SDS011;25077;50.302;18.996;2022-07-21T15:46:13;12.88;;;3.20;;
39356;SDS011;25077;50.302;18.996;2022-07-21T15:49:16;6.05;;;3.40;;
39356;SDS011;25077;50.302;18.996;2022-07-21T15:52:19;7.13;;;3.40;;
39356;SDS011;25077;50.302;18.996;2022-07-21T15:55:22;11.80;;;2.90;;
39356;SDS011;25077;50.302;18.996;2022-07-21T15:58:24;15.52;;;4.07;;
39356;SDS011;25077;50.302;18.996;2022-07-21T16:01:26;6.80;;;3.10;;
39356;SDS011;25077;50.302;18.996;2022-07-21T16:04:28;5.03;;;3.25;;
39356;SDS011;25077;50.302;18.996;2022-07-21T16:07:30;10.05;;;3.35;;
39356;SDS011;25077;50.302;18.996;2022-07-21T16:10:33;8.57;;;2.90;;
39356;SDS011;25077;50.302;18.996;2022-07-21T16:13:35;7.55;;;3.05;;
39356;SDS011;25077;50.302;18.996;2022-07-21T16:16:38;12.82;;;2.70;;
39356;SDS011;25077;50.302;18.996;2022-07-21T16:19:40;10.10;;;3.38;;
39356;SDS011;25077;50.302;18.996;2022-07-21T16:22:42;9.27;;;3.08;;
39356;SDS011;25077;50.302;18.996;2022-07-21T16:25:47;8.43;;;3.40;;
39356;SDS011;25077;50.302;18.996;2022-07-21T16:28:48;9.13;;;3.28;;
39356;SDS011;25077;50.302;18.996;2022-07-21T16:31:51;9.63;;;3.13;;
39356;SDS011;25077;50.302;18.996;2022-07-21T16:34:58;12.10;;;3.83;;
39356;SDS011;25077;50.302;18.996;2022-07-21T16:38:00;8.57;;;3.03;;
39356;SDS011;25077;50.302;18.996;2022-07-21T16:41:04;6.03;;;2.80;;
39356;SDS011;25077;50.302;18.996;2022-07-21T16:44:06;12.07;;;3.03;;
39356;SDS011;25077;50.302;18.996;2022-07-21T16:47:11;7.55;;;3.10;;
39356;SDS011;25077;50.302;18.996;2022-07-21T16:50:13;8.45;;;3.10;;
39356;SDS011;25077;50.302;18.996;2022-07-21T16:53:15;8.63;;;3.33;;
39356;SDS011;25077;50.302;18.996;2022-07-21T16:56:19;13.80;;;3.30;;
39356;SDS011;25077;50.302;18.996;2022-07-21T16:59:21;13.07;;;3.22;;
39356;SDS011;25077;50.302;18.996;2022-07-21T17:02:23;11.20;;;3.00;;
39356;SDS011;25077;50.302;18.996;2022-07-21T17:05:24;12.77;;;4.35;;
39356;SDS011;25077;50.302;18.996;2022-07-21T17:08:26;8.60;;;3.17;;
39356;SDS011;25077;50.302;18.996;2022-07-21T17:11:30;11.35;;;3.40;;
39356;SDS011;25077;50.302;18.996;2022-07-21T17:14:32;8.25;;;3.58;;
39356;SDS011;25077;50.302;18.996;2022-07-21T17:17:34;10.30;;;3.28;;
39356;SDS011;25077;50.302;18.996;2022-07-21T17:20:36;9.32;;;3.35;;
39356;SDS011;25077;50.302;18.996;2022-07-21T17:23:38;7.30;;;3.28;;
39356;SDS011;25077;50.302;18.996;2022-07-21T17:26:42;7.03;;;3.15;;
39356;SDS011;25077;50.302;18.996;2022-07-21T17:29:44;6.22;;;2.80;;
39356;SDS011;25077;50.302;18.996;2022-07-21T17:32:46;14.05;;;3.20;;
39356;SDS011;25077;50.302;18.996;2022-07-21T17:35:48;11.25;;;4.00;;
39356;SDS011;25077;50.302;18.996;2022-07-21T17:38:50;11.90;;;3.20;;
39356;SDS011;25077;50.302;18.996;2022-07-21T17:41:53;11.48;;;2.92;;
39356;SDS011;25077;50.302;18.996;2022-07-21T17:44:55;7.43;;;3.10;;
39356;SDS011;25077;50.302;18.996;2022-07-21T17:47:57;12.73;;;3.28;;
39356;SDS011;25077;50.302;18.996;2022-07-21T17:50:59;10.65;;;3.55;;
39356;SDS011;25077;50.302;18.996;2022-07-21T17:54:01;8.88;;;3.15;;
39356;SDS011;25077;50.302;18.996;2022-07-21T17:57:05;14.73;;;3.42;;
39356;SDS011;25077;50.302;18.996;2022-07-21T18:00:24;10.15;;;3.42;;
39356;SDS011;25077;50.302;18.996;2022-07-21T18:03:27;10.85;;;3.65;;
39356;SDS011;25077;50.302;18.996;2022-07-21T18:06:29;7.32;;;3.50;;
39356;SDS011;25077;50.302;18.996;2022-07-21T18:09:32;7.82;;;3.47;;
39356;SDS011;25077;50.302;18.996;2022-07-21T18:12:36;7.70;;;3.10;;